createdAt,value
2022-08-12T00:00:51.757Z,29.80
2022-08-12T00:03:37.330Z,29.74
2022-08-12T00:06:23.430Z,29.67
2022-08-12T00:09:09.477Z,29.66
2022-08-12T00:11:55.564Z,29.62
2022-08-12T00:14:41.514Z,29.59
2022-08-12T00:17:27.045Z,29.56
2022-08-12T00:20:12.609Z,29.50
2022-08-12T00:22:59.586Z,29.46
2022-08-12T00:26:21.783Z,29.46
2022-08-12T00:29:04.411Z,29.49
2022-08-12T00:31:49.817Z,29.50
2022-08-12T00:34:35.834Z,29.55
2022-08-12T00:37:22.469Z,29.56
2022-08-12T00:40:11.507Z,29.55
2022-08-12T00:42:41.638Z,29.56
2022-08-12T00:45:09.902Z,29.62
2022-08-12T00:47:38.170Z,29.59
2022-08-12T00:50:06.664Z,29.60
2022-08-12T00:52:35.616Z,29.60
2022-08-12T00:55:04.987Z,29.60
2022-08-12T00:57:36.806Z,29.59
2022-08-12T01:00:13.878Z,29.56
2022-08-12T01:02:42.936Z,29.53
2022-08-12T01:05:34.294Z,29.52
2022-08-12T01:08:19.806Z,29.52
2022-08-12T01:11:06.307Z,29.50
2022-08-12T01:13:36.145Z,29.47
2022-08-12T01:16:06.922Z,29.45
2022-08-12T01:18:35.762Z,29.42
2022-08-12T01:21:20.469Z,29.37
2022-08-12T01:24:29.924Z,29.33
2022-08-12T01:26:56.165Z,29.26
2022-08-12T01:29:33.249Z,29.25
2022-08-12T01:32:05.719Z,29.22
2022-08-12T01:34:37.381Z,29.16
2022-08-12T01:37:07.791Z,29.11
2022-08-12T01:40:33.984Z,29.04
2022-08-12T01:42:41.893Z,29.01
2022-08-12T01:45:10.177Z,28.92
2022-08-12T01:47:55.832Z,28.86
2022-08-12T01:50:37.451Z,28.82
2022-08-12T01:53:11.446Z,28.74
2022-08-12T01:55:40.439Z,28.74
2022-08-12T01:58:11.811Z,28.75
2022-08-12T02:00:56.126Z,28.77
2022-08-12T02:04:15.354Z,28.73
2022-08-12T02:07:29.067Z,28.73
2022-08-12T02:10:50.693Z,28.74
2022-08-12T02:13:10.377Z,28.70
2022-08-12T02:15:56.447Z,28.68
2022-08-12T02:18:34.161Z,28.68
2022-08-12T02:21:22.100Z,28.64
2022-08-12T02:23:49.401Z,28.65
2022-08-12T02:26:18.552Z,28.64
2022-08-12T02:28:46.233Z,28.61
2022-08-12T02:31:15.102Z,28.59
2022-08-12T02:33:42.913Z,28.61
2022-08-12T02:36:09.909Z,28.59
2022-08-12T02:38:37.906Z,28.61
2022-08-12T02:41:07.169Z,28.54
2022-08-12T02:43:43.148Z,28.54
2022-08-12T02:46:14.886Z,28.49
2022-08-12T02:48:41.870Z,28.50
2022-08-12T02:51:11.914Z,28.52
2022-08-12T02:53:39.509Z,28.49
2022-08-12T02:56:07.096Z,28.50
2022-08-12T02:58:36.026Z,28.50
2022-08-12T03:01:11.777Z,28.52
2022-08-12T03:03:40.345Z,28.50
2022-08-12T03:06:17.538Z,28.47
2022-08-12T03:08:53.567Z,28.52
2022-08-12T03:11:26.094Z,28.50
2022-08-12T03:13:58.050Z,28.52
2022-08-12T03:16:28.087Z,28.52
2022-08-12T03:18:54.981Z,28.52
2022-08-12T03:21:54.680Z,28.50
2022-08-12T03:24:12.563Z,28.52
2022-08-12T03:26:42.856Z,28.46
2022-08-12T03:29:12.391Z,28.43
2022-08-12T03:31:39.059Z,28.44
2022-08-12T03:34:09.065Z,28.43
2022-08-12T03:36:39.074Z,28.39
2022-08-12T03:39:17.487Z,28.42
2022-08-12T03:41:59.835Z,28.42
2022-08-12T03:44:56.113Z,28.42
2022-08-12T03:47:45.191Z,28.42
2022-08-12T03:50:31.138Z,28.43
2022-08-12T03:53:16.631Z,28.46
2022-08-12T03:56:02.208Z,28.47
2022-08-12T03:58:47.676Z,28.49
2022-08-12T04:01:14.565Z,28.52
2022-08-12T04:03:53.947Z,28.52
2022-08-12T04:06:34.917Z,28.52
2022-08-12T04:09:05.313Z,28.50
2022-08-12T04:12:00.970Z,28.52
2022-08-12T04:14:28.076Z,28.53
2022-08-12T04:16:57.345Z,28.56
2022-08-12T04:19:26.228Z,28.59
2022-08-12T04:22:02.613Z,28.59
2022-08-12T04:24:36.232Z,28.59
2022-08-12T04:27:08.740Z,28.56
2022-08-12T04:30:20.997Z,28.56
2022-08-12T04:32:25.399Z,28.54
2022-08-12T04:34:52.582Z,28.54
2022-08-12T04:37:19.347Z,28.53
2022-08-12T04:39:46.732Z,28.47
2022-08-12T04:42:13.530Z,28.50
2022-08-12T04:44:40.251Z,28.46
2022-08-12T04:47:10.529Z,28.46
2022-08-12T04:49:39.279Z,28.43
2022-08-12T04:52:06.100Z,28.40
2022-08-12T04:54:34.176Z,28.42
2022-08-12T04:57:04.111Z,28.42
2022-08-12T04:59:43.695Z,28.42
2022-08-12T05:02:20.995Z,28.40
2022-08-12T05:04:51.350Z,28.37
2022-08-12T05:07:18.061Z,28.35
2022-08-12T05:10:00.610Z,28.36
2022-08-12T05:12:44.673Z,28.36
2022-08-12T05:15:27.552Z,28.36
2022-08-12T05:17:56.072Z,28.40
2022-08-12T05:20:23.428Z,28.43
2022-08-12T05:22:57.486Z,28.43
2022-08-12T05:25:25.254Z,28.44
2022-08-12T05:27:55.350Z,28.40
2022-08-12T05:30:25.642Z,28.42
2022-08-12T05:32:53.741Z,28.42
2022-08-12T05:35:22.460Z,28.39
2022-08-12T05:37:49.764Z,28.44
2022-08-12T05:40:16.438Z,28.44
2022-08-12T05:42:43.361Z,28.46
2022-08-12T05:45:10.739Z,28.47
2022-08-12T05:47:53.839Z,28.49
2022-08-12T05:50:21.098Z,28.56
2022-08-12T05:52:48.599Z,28.54
2022-08-12T05:55:15.598Z,28.53
2022-08-12T05:57:44.345Z,28.56
2022-08-12T06:00:11.422Z,28.54
2022-08-12T06:02:38.058Z,28.54
2022-08-12T06:05:07.554Z,28.56
2022-08-12T06:08:01.285Z,28.57
2022-08-12T06:10:31.708Z,28.64
2022-08-12T06:13:06.835Z,28.65
2022-08-12T06:15:38.023Z,28.71
2022-08-12T06:18:14.119Z,28.74
2022-08-12T06:20:43.540Z,28.77
2022-08-12T06:23:12.007Z,28.78
2022-08-12T06:25:38.911Z,28.80
2022-08-12T06:28:17.696Z,28.84
2022-08-12T06:30:53.056Z,28.86
2022-08-12T06:33:59.684Z,28.90
2022-08-12T06:36:20.955Z,28.87
2022-08-12T06:38:49.175Z,28.92
2022-08-12T06:41:34.469Z,28.92
2022-08-12T06:44:04.600Z,28.97
2022-08-12T06:46:36.811Z,29.04
2022-08-12T06:49:03.798Z,29.11
2022-08-12T06:51:32.477Z,29.19
2022-08-12T06:54:00.989Z,29.28
2022-08-12T06:56:59.778Z,29.36
2022-08-12T06:59:15.814Z,29.43
2022-08-12T07:01:50.815Z,29.49
2022-08-12T07:07:08.365Z,29.69
2022-08-12T07:10:04.004Z,29.78
2022-08-12T07:12:22.191Z,29.91
2022-08-12T07:14:51.500Z,30.10
2022-08-12T07:17:18.771Z,30.29
2022-08-12T07:19:46.905Z,30.49
2022-08-12T07:22:16.172Z,30.69
2022-08-12T07:24:42.859Z,30.83
2022-08-12T07:27:09.943Z,31.00
2022-08-12T07:29:57.898Z,31.14
2022-08-12T07:32:25.541Z,31.30
2022-08-12T07:34:56.338Z,31.45
2022-08-12T07:37:23.683Z,31.59
2022-08-12T07:39:59.493Z,31.69
2022-08-12T07:42:27.482Z,31.82
2022-08-12T07:44:55.055Z,31.90
2022-08-12T07:47:21.737Z,31.97
2022-08-12T07:50:03.310Z,32.03
2022-08-12T07:52:32.930Z,32.07
2022-08-12T07:55:00.769Z,32.12
2022-08-12T07:57:27.839Z,32.23
2022-08-12T07:59:55.916Z,32.27
2022-08-12T08:02:26.391Z,32.32
2022-08-12T08:04:56.376Z,32.35
2022-08-12T08:07:25.795Z,32.50
2022-08-12T08:09:59.480Z,32.55
2022-08-12T08:12:48.591Z,32.59
2022-08-12T08:15:16.216Z,32.69
2022-08-12T08:18:04.236Z,32.75
2022-08-12T08:20:41.147Z,32.75
2022-08-12T08:23:14.987Z,32.85
2022-08-12T08:25:41.628Z,32.90
2022-08-12T08:28:13.667Z,33.09
2022-08-12T08:30:44.057Z,33.24
2022-08-12T08:33:24.409Z,33.37
2022-08-12T08:36:00.036Z,33.46
2022-08-12T08:38:32.969Z,33.50
2022-08-12T08:42:15.146Z,33.53
2022-08-12T08:44:11.720Z,33.55
2022-08-12T08:46:44.585Z,33.55
2022-08-12T08:49:12.358Z,33.68
2022-08-12T08:51:39.491Z,33.77
2022-08-12T08:54:08.717Z,33.74
2022-08-12T08:56:44.757Z,33.69
2022-08-12T08:59:12.712Z,33.75
2022-08-12T09:01:40.955Z,33.82
2022-08-12T09:05:08.785Z,33.94
2022-08-12T09:07:17.877Z,34.04
2022-08-12T09:10:01.966Z,34.06
2022-08-12T09:15:38.940Z,34.20
2022-08-12T09:18:09.500Z,34.31
2022-08-12T09:20:38.768Z,34.42
2022-08-12T09:24:01.094Z,34.43
2022-08-12T09:26:04.228Z,34.51
2022-08-12T09:28:33.563Z,34.59
2022-08-12T09:31:00.499Z,34.66
2022-08-12T09:34:28.727Z,34.71
2022-08-12T09:36:30.987Z,34.72
2022-08-12T09:40:03.475Z,34.66
2022-08-12T09:42:38.886Z,34.66
2022-08-12T09:45:23.005Z,34.68
2022-08-12T09:47:59.964Z,34.71
2022-08-12T09:50:27.257Z,34.71
2022-08-12T09:53:15.228Z,34.74
2022-08-12T09:56:41.135Z,34.83
2022-08-12T09:58:57.943Z,34.95
2022-08-12T10:01:23.060Z,35.08
2022-08-12T10:04:03.066Z,35.16
2022-08-12T10:06:36.025Z,35.21
2022-08-12T10:09:06.804Z,35.26
2022-08-12T10:12:09.974Z,35.33
2022-08-12T10:14:39.290Z,35.41
2022-08-12T10:17:22.898Z,35.46
2022-08-12T10:19:53.050Z,35.43
2022-08-12T10:22:38.079Z,35.46
2022-08-12T10:26:35.788Z,35.53
2022-08-12T10:28:32.795Z,35.56
2022-08-12T10:31:01.430Z,35.67
2022-08-12T10:33:31.891Z,35.70
2022-08-12T10:36:00.495Z,35.69
2022-08-12T10:38:33.853Z,35.73
2022-08-12T10:41:57.090Z,35.76
2022-08-12T10:44:17.249Z,35.80
2022-08-12T10:46:49.499Z,35.87
2022-08-12T10:50:02.280Z,35.91
2022-08-12T10:52:33.795Z,35.91
2022-08-12T10:54:55.579Z,35.96
2022-08-12T10:58:13.331Z,35.98
2022-08-12T11:00:30.782Z,35.96
2022-08-12T11:04:25.127Z,35.97
2022-08-12T11:07:09.094Z,35.98
2022-08-12T11:08:43.071Z,36.00
2022-08-12T11:12:07.452Z,36.05
2022-08-12T11:14:05.284Z,36.14
2022-08-12T11:16:32.843Z,36.20
2022-08-12T11:18:59.577Z,36.28
2022-08-12T11:21:51.288Z,36.29
2022-08-12T11:24:18.737Z,36.35
2022-08-12T11:27:00.867Z,36.36
2022-08-12T11:30:03.716Z,36.34
2022-08-12T11:32:15.688Z,36.32
2022-08-12T11:34:52.422Z,36.31
2022-08-12T11:37:58.139Z,36.36
2022-08-12T11:42:39.696Z,36.44
2022-08-12T11:45:16.274Z,36.46
2022-08-12T11:47:43.797Z,36.46
2022-08-12T11:50:11.780Z,36.49
2022-08-12T11:52:55.794Z,36.55
2022-08-12T11:55:29.803Z,36.62
2022-08-12T11:58:17.212Z,36.68
2022-08-12T12:03:44.059Z,36.76
2022-08-12T12:06:18.006Z,36.73
2022-08-12T12:08:51.055Z,36.76
2022-08-12T12:11:20.008Z,36.76
2022-08-12T12:14:07.683Z,36.78
2022-08-12T12:16:39.750Z,36.80
2022-08-12T12:19:10.052Z,36.83
2022-08-12T12:21:47.845Z,36.91
2022-08-12T12:24:22.090Z,36.93
2022-08-12T12:27:00.372Z,36.90
2022-08-12T12:30:18.008Z,36.89
2022-08-12T12:32:29.314Z,36.91
2022-08-12T12:35:13.741Z,36.90
2022-08-12T12:38:05.651Z,36.99
2022-08-12T12:40:41.780Z,37.01
2022-08-12T12:43:11.305Z,37.03
2022-08-12T12:45:39.546Z,37.00
2022-08-12T12:48:17.558Z,37.00
2022-08-12T12:51:09.650Z,37.03
2022-08-12T12:54:07.118Z,37.06
2022-08-12T12:56:33.959Z,37.10
2022-08-12T12:59:03.898Z,37.10
2022-08-12T13:01:32.016Z,37.08
2022-08-12T13:04:02.027Z,37.14
2022-08-12T13:06:31.033Z,37.16
2022-08-12T13:09:03.094Z,37.17
2022-08-12T13:11:44.386Z,37.21
2022-08-12T13:14:27.905Z,37.24
2022-08-12T13:16:55.365Z,37.31
2022-08-12T13:19:36.626Z,37.33
2022-08-12T13:22:20.657Z,37.37
2022-08-12T13:24:55.756Z,37.39
2022-08-12T13:27:35.751Z,37.41
2022-08-12T13:30:11.326Z,37.37
2022-08-12T13:32:57.178Z,37.37
2022-08-12T13:35:33.435Z,37.37
2022-08-12T13:38:02.571Z,37.35
2022-08-12T13:40:34.067Z,37.38
2022-08-12T13:43:02.155Z,37.41
2022-08-12T13:45:33.543Z,37.44
2022-08-12T13:48:02.104Z,37.44
2022-08-12T13:50:49.180Z,37.45
2022-08-12T13:53:24.338Z,37.52
2022-08-12T13:56:01.530Z,37.52
2022-08-12T13:58:30.546Z,37.51
2022-08-12T14:00:58.403Z,37.51
2022-08-12T14:03:28.701Z,37.51
2022-08-12T14:06:15.645Z,37.57
2022-08-12T14:08:43.030Z,37.61
2022-08-12T14:11:09.968Z,37.65
2022-08-12T14:14:03.469Z,37.73
2022-08-12T14:16:47.084Z,37.78
2022-08-12T14:19:22.539Z,37.76
2022-08-12T14:22:01.219Z,37.78
2022-08-12T14:24:35.573Z,37.79
2022-08-12T14:27:03.861Z,37.81
2022-08-12T14:29:56.126Z,37.82
2022-08-12T14:32:23.682Z,37.82
2022-08-12T14:34:51.705Z,37.82
2022-08-12T14:37:55.599Z,37.81
2022-08-12T14:40:06.819Z,37.82
2022-08-12T14:42:33.437Z,37.86
2022-08-12T14:45:01.535Z,37.86
2022-08-12T14:47:35.038Z,37.86
2022-08-12T14:50:40.856Z,37.86
2022-08-12T14:55:24.650Z,37.85
2022-08-12T14:58:28.412Z,37.83
2022-08-12T15:01:19.914Z,37.82
2022-08-12T15:03:57.932Z,37.83
2022-08-12T15:06:39.779Z,37.86
2022-08-12T15:09:13.592Z,37.88
2022-08-12T15:11:48.937Z,37.88
2022-08-12T15:14:27.579Z,37.90
2022-08-12T15:17:00.516Z,37.94
2022-08-12T15:20:11.004Z,37.99
2022-08-12T15:22:35.375Z,38.00
2022-08-12T15:25:03.821Z,38.05
2022-08-12T15:28:10.985Z,38.02
2022-08-12T15:30:25.609Z,38.02
2022-08-12T15:32:56.916Z,38.03
2022-08-12T15:35:24.491Z,38.06
2022-08-12T15:38:10.062Z,38.07
2022-08-12T15:40:49.540Z,38.07
2022-08-12T15:43:52.043Z,38.09
2022-08-12T15:46:06.414Z,38.07
2022-08-12T15:48:34.185Z,38.09
2022-08-12T15:51:03.031Z,38.10
2022-08-12T15:53:53.257Z,38.07
2022-08-12T15:56:29.418Z,38.06
2022-08-12T15:58:58.965Z,38.07
2022-08-12T16:01:35.248Z,38.06
2022-08-12T16:04:05.392Z,38.07
2022-08-12T16:09:55.730Z,38.02
2022-08-12T16:12:12.070Z,37.98
2022-08-12T16:14:39.276Z,38.00
2022-08-12T16:17:08.786Z,37.96
2022-08-12T16:20:04.711Z,37.96
2022-08-12T16:22:26.497Z,37.92
2022-08-12T16:24:54.153Z,37.93
2022-08-12T16:27:23.820Z,37.92
2022-08-12T16:29:57.407Z,37.90
2022-08-12T16:32:31.092Z,37.93
2022-08-12T16:34:59.950Z,37.88
2022-08-12T16:37:32.549Z,37.86
2022-08-12T16:40:06.073Z,37.86
2022-08-12T16:42:39.189Z,37.78
2022-08-12T16:45:13.649Z,37.82
2022-08-12T16:47:58.891Z,37.81
2022-08-12T16:50:30.566Z,37.78
2022-08-12T16:53:02.073Z,37.76
2022-08-12T16:55:42.158Z,37.76
2022-08-12T16:58:28.195Z,37.69
2022-08-12T17:00:58.856Z,37.71
2022-08-12T17:03:36.709Z,37.66
2022-08-12T17:06:04.218Z,37.64
2022-08-12T17:08:30.879Z,37.58
2022-08-12T17:10:57.666Z,37.58
2022-08-12T17:13:26.262Z,37.54
2022-08-12T17:16:05.867Z,37.51
2022-08-12T17:18:43.598Z,37.46
2022-08-12T17:21:41.111Z,37.42
2022-08-12T17:24:15.245Z,37.38
2022-08-12T17:26:49.217Z,37.37
2022-08-12T17:29:24.270Z,37.35
2022-08-12T17:32:08.880Z,37.31
2022-08-12T17:34:54.904Z,37.27
2022-08-12T17:37:22.187Z,37.26
2022-08-12T17:40:15.777Z,37.21
2022-08-12T17:42:38.402Z,37.18
2022-08-12T17:45:18.080Z,37.17
2022-08-12T17:48:01.041Z,37.16
2022-08-12T17:50:29.142Z,37.14
2022-08-12T17:53:02.526Z,37.11
2022-08-12T17:55:44.032Z,37.07
2022-08-12T17:58:37.567Z,37.04
2022-08-12T18:01:11.164Z,37.03
2022-08-12T18:03:58.043Z,36.96
2022-08-12T18:06:28.032Z,36.91
2022-08-12T18:08:58.886Z,36.91
2022-08-12T18:12:04.139Z,36.87
2022-08-12T18:14:32.983Z,36.80
2022-08-12T18:17:08.487Z,36.82
2022-08-12T18:20:06.636Z,36.76
2022-08-12T18:22:31.487Z,36.73
2022-08-12T18:25:08.731Z,36.70
2022-08-12T18:28:15.536Z,36.66
2022-08-12T18:30:45.194Z,36.63
2022-08-12T18:33:23.884Z,36.59
2022-08-12T18:35:53.670Z,36.57
2022-08-12T18:38:24.895Z,36.52
2022-08-12T18:41:21.333Z,36.49
2022-08-12T18:44:03.042Z,36.46
2022-08-12T18:46:45.875Z,36.41
2022-08-12T18:49:30.359Z,36.38
2022-08-12T18:52:04.179Z,36.32
2022-08-12T18:54:35.289Z,36.29
2022-08-12T18:57:16.358Z,36.27
2022-08-12T19:00:02.057Z,36.24
2022-08-12T19:02:40.644Z,36.17
2022-08-12T19:05:10.986Z,36.17
2022-08-12T19:07:50.032Z,36.09
2022-08-12T19:10:28.678Z,36.07
2022-08-12T19:13:23.879Z,36.04
2022-08-12T19:15:57.515Z,36.01
2022-08-12T19:18:29.213Z,36.00
2022-08-12T19:20:58.300Z,35.97
2022-08-12T19:23:25.325Z,35.94
2022-08-12T19:26:03.458Z,35.93
2022-08-12T19:28:35.301Z,35.91
2022-08-12T19:31:57.361Z,35.84
2022-08-12T19:34:56.434Z,35.81
2022-08-12T19:38:03.060Z,35.80
2022-08-12T19:40:32.845Z,35.74
2022-08-12T19:43:19.410Z,35.72
2022-08-12T19:45:57.239Z,35.70
2022-08-12T19:48:30.491Z,35.66
2022-08-12T19:50:57.963Z,35.64
2022-08-12T19:53:27.607Z,35.64
2022-08-12T19:55:56.279Z,35.62
2022-08-12T19:58:25.153Z,35.57
2022-08-12T20:00:53.239Z,35.56
2022-08-12T20:03:38.006Z,35.54
2022-08-12T20:06:14.024Z,35.49
2022-08-12T20:08:53.843Z,35.47
2022-08-12T20:12:15.307Z,35.43
2022-08-12T20:14:18.653Z,35.41
2022-08-12T20:16:51.088Z,35.39
2022-08-12T20:19:20.116Z,35.35
2022-08-12T20:21:48.616Z,35.33
2022-08-12T20:24:15.262Z,35.29
2022-08-12T20:26:43.051Z,35.26
2022-08-12T20:29:12.123Z,35.24
2022-08-12T20:31:40.434Z,35.19
2022-08-12T20:34:09.106Z,35.18
2022-08-12T20:36:45.017Z,35.14
2022-08-12T20:39:17.413Z,35.11
2022-08-12T20:42:07.693Z,35.05
2022-08-12T20:44:41.109Z,35.02
2022-08-12T20:47:20.209Z,34.99
2022-08-12T20:49:54.988Z,34.95
2022-08-12T20:52:25.501Z,34.92
2022-08-12T20:55:15.323Z,34.90
2022-08-12T20:58:01.900Z,34.84
2022-08-12T21:00:30.020Z,34.86
2022-08-12T21:03:16.596Z,34.83
2022-08-12T21:06:12.461Z,34.80
2022-08-12T21:08:41.435Z,34.78
2022-08-12T21:11:09.687Z,34.74
2022-08-12T21:13:39.148Z,34.71
2022-08-12T21:16:06.418Z,34.67
2022-08-12T21:18:38.246Z,34.64
2022-08-12T21:21:23.239Z,34.60
2022-08-12T21:23:51.323Z,34.59
2022-08-12T21:26:23.188Z,34.56
2022-08-12T21:28:56.654Z,34.51
2022-08-12T21:32:39.825Z,34.44
2022-08-12T21:34:18.029Z,34.40
2022-08-12T21:36:49.502Z,34.37
2022-08-12T21:39:35.193Z,34.39
2022-08-12T21:42:06.668Z,34.33
2022-08-12T21:45:44.532Z,34.33
2022-08-12T21:47:23.308Z,34.32
2022-08-12T21:50:02.512Z,34.32
2022-08-12T21:52:34.498Z,34.31
2022-08-12T21:55:02.838Z,34.31
2022-08-12T21:57:36.384Z,34.26
2022-08-12T22:00:17.405Z,34.22
2022-08-12T22:03:03.379Z,34.20
2022-08-12T22:05:49.224Z,34.20
2022-08-12T22:08:17.149Z,34.20
2022-08-12T22:10:52.184Z,34.17
2022-08-12T22:14:07.167Z,34.15
2022-08-12T22:16:07.052Z,34.15
2022-08-12T22:18:33.739Z,34.10
2022-08-12T22:21:00.378Z,34.08
2022-08-12T22:23:51.191Z,34.06
2022-08-12T22:26:15.936Z,34.08
2022-08-12T22:29:14.059Z,34.08
2022-08-12T22:31:44.030Z,34.06
2022-08-12T22:34:18.385Z,34.05
2022-08-12T22:36:45.790Z,34.02
2022-08-12T22:39:15.727Z,34.01
2022-08-12T22:42:06.581Z,34.01
2022-08-12T22:44:54.458Z,33.99
2022-08-12T22:47:53.526Z,33.91
2022-08-12T22:50:27.622Z,33.89
2022-08-12T22:53:15.511Z,33.91
2022-08-12T22:56:00.258Z,33.87
2022-08-12T22:58:33.849Z,33.84
2022-08-12T23:01:02.259Z,33.74
2022-08-12T23:03:48.859Z,33.69
2022-08-12T23:06:23.899Z,33.67
2022-08-12T23:08:51.563Z,33.64
2022-08-12T23:11:23.928Z,33.62
2022-08-12T23:14:01.810Z,33.58
2022-08-12T23:16:34.077Z,33.51
2022-08-12T23:19:18.152Z,33.41
2022-08-12T23:22:03.683Z,33.35
2022-08-12T23:24:55.965Z,33.34
2022-08-12T23:27:50.198Z,33.26
2022-08-12T23:30:25.236Z,33.14
2022-08-12T23:33:00.701Z,32.98
2022-08-12T23:35:53.935Z,32.89
2022-08-12T23:38:24.639Z,32.83
2022-08-12T23:40:58.305Z,32.82
2022-08-12T23:43:25.599Z,32.75
2022-08-12T23:46:00.503Z,32.72
2022-08-12T23:48:31.452Z,32.76
2022-08-12T23:50:59.578Z,32.74
2022-08-12T23:53:32.263Z,32.71
2022-08-12T23:55:59.652Z,32.69
2022-08-12T23:58:28.352Z,32.58
